Date,TemperatureHighF,TemperatureAvgF,TemperatureLowF,DewpointHighF,DewpointAvgF,DewpointLowF,HumidityHigh,HumidityAvg,HumidityLow,PressureMaxIn,PressureMinIn,WindSpeedMaxMPH,WindSpeedAvgMPH,GustSpeedMaxMPH,PrecipitationSumIn
2013-2-1,77,59,45,26,20,13,37,23,15,30.21,30.09,4,2,8,0.00
2013-2-2,82,63,52,29,21,14,26,20,14,30.24,30.15,4,1,8,0.00
2013-2-3,78,65,53,32,22,15,35,20,15,30.15,30.00,5,2,10,0.00
2013-2-4,83,63,49,29,20,13,27,19,14,30.06,29.97,6,2,11,0.00
2013-2-5,81,63,47,28,19,10,22,18,14,30.00,29.91,8,3,17,0.00
2013-2-6,76,60,47,27,22,15,41,24,15,30.06,29.85,11,4,24,0.00
2013-2-7,76,58,42,26,18,7,28,22,15,30.06,29.91,7,3,20,0.00
2013-2-8,61,48,39,29,18,12,53,31,19,29.91,29.82,11,6,26,0.00
2013-2-9,59,48,38,17,13,9,36,25,19,30.03,29.82,11,6,21,0.00
2013-2-10,66,50,37,21,13,8,31,23,18,30.03,29.97,11,4,17,0.00
2013-2-11,60,50,38,19,12,1,38,22,19,30.18,29.97,16,5,28,0.00
2013-2-12,68,45,34,22,7,-1,22,20,17,30.30,30.18,6,2,13,0.00
2013-2-13,77,55,38,26,13,2,21,19,15,30.21,30.09,8,2,14,0.00
2013-2-14,78,60,43,26,16,5,23,18,15,30.21,30.09,9,3,17,0.00
2013-2-15,81,63,50,29,19,9,21,18,14,30.27,30.15,8,2,15,0.00
2013-2-16,83,62,48,29,18,8,21,18,14,30.24,29.97,6,2,10,0.00
2013-2-17,77,60,44,26,16,6,21,18,15,29.97,29.85,11,4,24,0.00
2013-2-18,77,59,42,26,17,4,30,19,15,30.00,29.88,6,2,13,0.00
2013-2-19,61,52,45,26,18,14,38,26,19,29.88,29.65,17,8,28,0.00
2013-2-20,60,49,40,33,17,12,68,30,19,29.91,29.62,13,6,26,0.08
2013-2-21,66,51,38,21,13,2,30,22,18,30.06,29.88,10,4,23,0.00
2013-2-22,71,52,35,24,12,0,25,20,17,30.15,30.03,5,2,11,0.00
2013-2-23,71,57,41,24,17,8,31,21,17,30.12,29.82,18,5,34,0.00
2013-2-24,65,55,46,20,14,6,21,19,18,30.18,29.94,19,9,31,0.00
2013-2-25,72,53,0,24,13,1,22,19,16,30.21,30.03,5,2,12,0.00
2013-2-26,73,57,39,24,15,2,23,19,16,30.18,29.94,10,4,22,0.00
2013-2-27,71,57,42,24,15,4,21,19,17,30.30,30.18,12,4,23,0.00
2013-2-28,81,61,41,28,17,4,21,18,14,30.33,30.27,7,2,12,0.00